Time;durP1;ratioP1;P1;durP2;ratioP2;P2;SDS_P1;SDS_P2;PMS_P1;PMS_P2;Temp;Humidity;BMP_temperature;BMP_pressure;BME280_temperature;BME280_humidity;BME280_pressure;Samples;Min_cycle;Max_cycle;Signal;HPM_P1;HPM_P2
2021/12/17 00:01:00;;;;;;;8.77;7.97;;;;;;;5.23;100.00;100137.81;5072036;28;20192;-69
2021/12/17 00:03:39;;;;;;;11.13;9.03;;;;;;;5.18;100.00;100129.34;5072238;28;20223;-69
2021/12/17 00:06:29;;;;;;;11.63;8.57;;;;;;;5.21;100.00;100144.59;5071960;28;20588;-69
2021/12/17 00:08:59;;;;;;;10.10;8.37;;;;;;;5.16;100.00;100131.03;5071164;28;20208;-69
2021/12/17 00:11:27;;;;;;;14.87;9.00;;;;;;;5.24;100.00;100139.53;5070514;28;20200;-69
2021/12/17 00:13:55;;;;;;;10.87;9.27;;;;;;;5.27;100.00;100139.53;5070340;28;20196;-69
2021/12/17 00:16:26;;;;;;;9.67;8.67;;;;;;;5.17;100.00;100137.78;5070607;28;20579;-69
2021/12/17 00:19:11;;;;;;;12.47;9.83;;;;;;;5.21;100.00;100134.44;5070553;28;20204;-69
2021/12/17 00:49:23;;;;;;;10.43;7.53;;;;;;;5.00;100.00;100129.28;5067731;28;20261;-69
2021/12/17 00:51:58;;;;;;;8.93;7.77;;;;;;;4.96;100.00;100127.56;5070674;28;20207;-68
2021/12/17 00:54:34;;;;;;;9.43;8.23;;;;;;;4.92;100.00;100125.84;5071362;28;20202;-69
2021/12/17 00:57:07;;;;;;;8.00;7.30;;;;;;;4.95;100.00;100130.09;5071188;28;20678;-69
2021/12/17 00:59:34;;;;;;;9.00;7.97;;;;;;;4.96;100.00;100126.72;5071413;28;20727;-69
2021/12/17 01:02:05;;;;;;;11.57;8.67;;;;;;;4.90;100.00;100127.53;5071074;28;20192;-69
2021/12/17 01:04:33;;;;;;;9.93;7.40;;;;;;;4.87;100.00;100122.47;5071287;28;20660;-69
2021/12/17 01:07:00;;;;;;;8.57;7.70;;;;;;;4.82;100.00;100119.03;5070961;28;20212;-69
2021/12/17 01:09:28;;;;;;;9.00;8.13;;;;;;;4.86;100.00;100122.44;5070894;28;20200;-69
2021/12/17 01:11:56;;;;;;;8.20;7.47;;;;;;;4.80;100.00;100120.72;5071242;28;20290;-69
2021/12/17 01:14:26;;;;;;;12.23;8.87;;;;;;;4.76;100.00;100119.00;5071276;28;20370;-69
2021/12/17 01:16:53;;;;;;;11.47;7.87;;;;;;;4.68;100.00;100120.69;5068808;28;20192;-69
2021/12/17 01:19:31;;;;;;;8.30;7.50;;;;;;;4.66;100.00;100118.09;5070182;28;20636;-69
2021/12/17 01:22:16;;;;;;;8.43;7.70;;;;;;;4.61;100.00;100111.31;5069214;28;20250;-70
2021/12/17 01:24:48;;;;;;;9.23;8.10;;;;;;;4.64;100.00;100116.41;5069666;28;20200;-69
2021/12/17 01:35:30;;;;;;;8.40;7.40;;;;;;;4.56;100.00;100113.81;5070954;28;20706;-69
2021/12/17 01:43:24;;;;;;;7.90;7.10;;;;;;;4.50;100.00;100110.41;5070722;28;20207;-69
2021/12/17 01:45:52;;;;;;;8.60;7.80;;;;;;;4.47;100.00;100107.84;5068694;28;20231;-69
2021/12/17 01:48:26;;;;;;;8.63;7.83;;;;;;;4.49;100.00;100106.19;5070161;28;20215;-69
2021/12/17 01:56:37;;;;;;;7.90;7.17;;;;;;;4.50;100.00;100105.31;5070203;28;20203;-69
2021/12/17 01:59:25;;;;;;;9.53;7.83;;;;;;;4.51;100.00;100105.34;5070458;28;20203;-69
2021/12/17 02:02:01;;;;;;;7.27;6.67;;;;;;;4.52;100.00;100111.28;5068911;28;20203;-69
2021/12/17 02:04:30;;;;;;;8.70;7.77;;;;;;;4.43;100.00;100103.59;5070280;28;20192;-69
2021/12/17 02:06:58;;;;;;;8.90;7.97;;;;;;;4.45;100.00;100107.84;5070603;28;20309;-69
2021/12/17 02:10:08;;;;;;;9.57;7.97;;;;;;;4.39;100.00;100091.75;5070559;28;20283;-69
2021/12/17 02:13:00;;;;;;;8.73;7.57;;;;;;;4.39;100.00;100102.75;5069874;28;20633;-69
2021/12/17 02:21:35;;;;;;;11.70;8.87;;;;;;;4.33;100.00;100096.78;5066184;28;20288;-69
2021/12/17 02:29:57;;;;;;;8.33;7.53;;;;;;;4.30;100.00;100081.53;5070757;28;20748;-69
2021/12/17 02:32:26;;;;;;;11.23;8.40;;;;;;;4.24;100.00;100078.09;5074198;28;20223;-69
2021/12/17 02:35:01;;;;;;;10.07;7.87;;;;;;;4.22;100.00;100076.41;5073793;28;20196;-69
2021/12/17 02:37:33;;;;;;;9.10;8.30;;;;;;;4.23;100.00;100076.41;5073305;28;20188;-69
2021/12/17 02:40:13;;;;;;;8.80;7.90;;;;;;;4.21;100.00;100077.25;5073413;28;20261;-69
2021/12/17 02:45:32;;;;;;;10.73;7.43;;;;;;;4.12;100.00;100078.03;5071438;28;20593;-69
2021/12/17 02:48:01;;;;;;;12.07;8.60;;;;;;;4.09;100.00;100078.03;5072584;28;20220;-69
2021/12/17 02:50:29;;;;;;;8.87;7.67;;;;;;;4.13;100.00;100084.81;5070886;28;20207;-69
2021/12/17 02:53:00;;;;;;;9.57;7.63;;;;;;;4.11;100.00;100083.94;5073934;28;20660;-69
2021/12/17 02:55:29;;;;;;;7.77;7.17;;;;;;;4.08;100.00;100088.16;5073405;28;20192;-69
2021/12/17 02:57:57;;;;;;;8.30;7.50;;;;;;;4.06;100.00;100087.28;5073569;28;20606;-69
2021/12/17 03:00:24;;;;;;;9.20;7.73;;;;;;;4.13;100.00;100079.75;5073953;28;20206;-69
2021/12/17 03:02:53;;;;;;;7.70;7.07;;;;;;;4.17;100.00;100081.44;5072821;28;20204;-69
2021/12/17 03:05:20;;;;;;;8.33;7.53;;;;;;;4.01;100.00;100064.41;5072249;28;20200;-69
2021/12/17 03:07:48;;;;;;;8.70;7.60;;;;;;;4.13;100.00;100082.28;5072810;28;20786;-69
2021/12/17 03:10:17;;;;;;;8.50;7.53;;;;;;;4.10;100.00;100072.09;5073246;28;20706;-69
2021/12/17 03:12:48;;;;;;;9.13;8.23;;;;;;;4.11;100.00;100071.25;5073591;28;20691;-69
2021/12/17 03:15:23;;;;;;;9.53;8.53;;;;;;;4.07;100.00;100069.53;5073141;28;20652;-69
2021/12/17 03:23:30;;;;;;;8.40;7.60;;;;;;;4.07;100.00;100069.53;5028240;28;20196;-69
2021/12/17 03:25:59;;;;;;;8.63;7.60;;;;;;;4.18;100.00;100073.00;5073081;28;20667;-69
2021/12/17 03:28:27;;;;;;;8.37;7.67;;;;;;;4.22;100.00;100078.94;5073251;28;20212;-69
2021/12/17 03:30:54;;;;;;;8.67;7.87;;;;;;;4.22;100.00;100064.56;5073069;28;20676;-69
2021/12/17 03:33:22;;;;;;;9.97;8.27;;;;;;;4.29;100.00;100062.91;5072589;28;20200;-69
2021/12/17 03:35:49;;;;;;;7.80;7.07;;;;;;;4.29;100.00;100059.53;5070731;28;20196;-69
2021/12/17 03:38:16;;;;;;;8.07;7.40;;;;;;;4.39;100.00;100066.34;5073036;28;20278;-69
2021/12/17 03:40:45;;;;;;;11.63;7.23;;;;;;;4.29;100.00;100055.31;5072374;28;20593;-69
2021/12/17 03:43:21;;;;;;;8.30;7.13;;;;;;;4.41;100.00;100067.19;5071632;28;20246;-69
2021/12/17 03:45:49;;;;;;;7.77;6.90;;;;;;;4.41;100.00;100067.19;5072325;28;20227;-69
2021/12/17 03:48:16;;;;;;;9.13;7.17;;;;;;;4.46;100.00;100068.09;5072562;28;20222;-69
2021/12/17 03:50:43;;;;;;;11.67;7.67;;;;;;;4.53;100.00;100064.72;5072915;28;20202;-69
2021/12/17 03:53:10;;;;;;;8.83;6.73;;;;;;;4.56;100.00;100072.34;5072690;28;20202;-68
2021/12/17 03:55:37;;;;;;;7.43;6.73;;;;;;;4.59;100.00;100070.66;5072719;28;20206;-69
2021/12/17 03:58:04;;;;;;;7.03;6.43;;;;;;;4.60;100.00;100067.31;5072468;28;20188;-69
2021/12/17 04:00:33;;;;;;;8.63;6.63;;;;;;;4.64;100.00;100069.03;5072452;28;20203;-69
2021/12/17 04:03:01;;;;;;;6.27;5.87;;;;;;;4.64;100.00;100060.56;5072480;28;20582;-69
2021/12/17 04:05:28;;;;;;;8.40;7.57;;;;;;;4.70;100.00;100055.50;5071303;28;20208;-69
2021/12/17 04:07:55;;;;;;;7.87;7.20;;;;;;;4.71;100.00;100054.66;5072420;28;20624;-69
2021/12/17 04:10:24;;;;;;;7.77;6.97;;;;;;;4.73;100.00;100053.81;5072100;28;20301;-69
2021/12/17 04:12:56;;;;;;;8.57;7.70;;;;;;;4.78;100.00;100060.59;5072253;28;20204;-69
2021/12/17 04:15:33;;;;;;;7.40;6.80;;;;;;;4.79;100.00;100058.06;5070749;28;20196;-69
2021/12/17 04:18:05;;;;;;;8.70;8.00;;;;;;;4.64;100.00;100032.63;5071785;28;20604;-69
2021/12/17 04:20:32;;;;;;;7.67;6.47;;;;;;;4.81;100.00;100056.41;5072084;28;20188;-69
2021/12/17 04:22:59;;;;;;;6.60;6.03;;;;;;;4.85;100.00;100058.06;5071953;28;20204;-69
2021/12/17 04:25:28;;;;;;;6.70;6.17;;;;;;;4.86;100.00;100054.69;5065485;28;20203;-69
2021/12/17 04:27:55;;;;;;;7.10;6.50;;;;;;;4.90;100.00;100056.41;5070812;28;20212;-69
2021/12/17 04:30:22;;;;;;;7.50;5.93;;;;;;;4.95;100.00;100053.88;5070573;28;20282;-69
2021/12/17 04:32:49;;;;;;;7.30;6.70;;;;;;;4.98;100.00;100054.72;5067798;28;20195;-69
2021/12/17 04:35:18;;;;;;;6.97;6.27;;;;;;;4.99;100.00;100056.44;5070360;28;20579;-70
2021/12/17 04:37:44;;;;;;;6.13;5.73;;;;;;;5.01;100.00;100064.06;5070198;28;20202;-69
2021/12/17 04:40:12;;;;;;;7.13;6.60;;;;;;;5.01;100.00;100061.53;5068991;28;20204;-69
2021/12/17 04:42:49;;;;;;;7.57;6.83;;;;;;;5.01;100.00;100059.81;5069948;28;20204;-69
2021/12/17 04:45:16;;;;;;;7.10;6.50;;;;;;;5.04;100.00;100056.47;5070086;28;20219;-69
2021/12/17 04:58:40;;;;;;;6.47;6.00;;;;;;;5.09;100.00;100058.16;5071368;28;20190;-69
2021/12/17 05:01:12;;;;;;;8.13;7.40;;;;;;;5.13;100.00;100059.03;5071564;28;20196;-69
2021/12/17 05:03:39;;;;;;;6.93;6.30;;;;;;;5.15;100.00;100063.25;5071209;28;20253;-69
2021/12/17 05:06:07;;;;;;;6.77;6.27;;;;;;;5.17;100.00;100053.94;5071273;28;20200;-69
2021/12/17 05:08:35;;;;;;;7.00;6.50;;;;;;;5.24;100.00;100057.31;5071080;28;20212;-69
2021/12/17 05:11:17;;;;;;;7.90;6.53;;;;;;;5.22;100.00;100057.34;5071182;28;20192;-69
2021/12/17 05:19:22;;;;;;;7.37;6.70;;;;;;;5.20;100.00;100053.94;5071353;28;20571;-69
2021/12/17 05:21:50;;;;;;;7.90;7.10;;;;;;;5.19;100.00;100038.69;5071120;28;20249;-69
2021/12/17 05:24:17;;;;;;;7.00;6.40;;;;;;;5.20;100.00;100048.84;5071412;28;20207;-69
2021/12/17 05:26:44;;;;;;;7.23;6.63;;;;;;;5.18;100.00;100040.38;5071190;28;20192;-69
2021/12/17 05:29:11;;;;;;;6.57;5.97;;;;;;;5.15;100.00;100034.44;5070845;28;20218;-69
2021/12/17 05:31:38;;;;;;;6.67;6.13;;;;;;;5.10;100.00;100029.38;5071443;28;20200;-69
2021/12/17 05:34:04;;;;;;;6.80;6.20;;;;;;;5.11;100.00;100020.88;5070957;28;20685;-69
2021/12/17 05:36:31;;;;;;;6.73;6.10;;;;;;;5.10;100.00;100016.66;5071108;28;20203;-69
2021/12/17 05:39:00;;;;;;;6.33;5.83;;;;;;;5.06;100.00;100006.47;5070446;28;20198;-69
2021/12/17 05:41:26;;;;;;;7.37;6.50;;;;;;;5.07;100.00;100019.16;5071164;28;20218;-69
2021/12/17 05:43:57;;;;;;;7.27;6.77;;;;;;;5.06;100.00;100017.50;5070782;28;20192;-69
2021/12/17 05:46:37;;;;;;;7.97;7.27;;;;;;;5.11;100.00;100020.88;5068975;28;20200;-69
2021/12/17 05:49:05;;;;;;;5.60;5.10;;;;;;;5.12;100.00;100012.41;5070750;28;20222;-69
2021/12/17 05:51:31;;;;;;;6.17;5.70;;;;;;;5.14;100.00;100005.63;5070946;28;20199;-69
2021/12/17 05:54:00;;;;;;;6.30;5.60;;;;;;;5.14;100.00;100000.56;5070665;28;20199;-70
2021/12/17 05:56:27;;;;;;;5.70;5.20;;;;;;;5.16;100.00;100014.13;5070978;28;20208;-69
2021/12/17 05:58:55;;;;;;;6.23;5.63;;;;;;;5.11;100.00;100005.63;5070878;28;20676;-69
2021/12/17 06:01:22;;;;;;;5.77;5.27;;;;;;;5.15;100.00;100017.50;5070453;28;20200;-69
2021/12/17 06:03:49;;;;;;;6.27;5.67;;;;;;;5.11;100.00;100013.25;5070129;28;20272;-69
2021/12/17 06:06:27;;;;;;;6.67;6.07;;;;;;;5.13;100.00;100019.22;5072376;28;20204;-69
2021/12/17 06:08:53;;;;;;;5.93;5.53;;;;;;;5.14;100.00;100010.72;5072085;28;20207;-69
2021/12/17 06:11:22;;;;;;;5.70;5.30;;;;;;;5.16;100.00;100024.28;5074350;28;20287;-69
2021/12/17 06:13:49;;;;;;;6.40;5.93;;;;;;;5.16;100.00;100009.03;5074566;28;20196;-69
2021/12/17 06:16:16;;;;;;;6.80;6.20;;;;;;;5.18;100.00;100012.44;5073627;28;20208;-69
2021/12/17 06:18:43;;;;;;;6.03;5.57;;;;;;;5.16;100.00;99993.78;5074393;28;20195;-69
2021/12/17 06:21:10;;;;;;;6.10;5.60;;;;;;;5.27;100.00;100016.66;5074516;28;20200;-69
2021/12/17 06:23:37;;;;;;;5.77;5.37;;;;;;;5.20;100.00;100003.09;5074596;28;20228;-69
2021/12/17 06:26:05;;;;;;;6.63;5.40;;;;;;;5.34;100.00;100027.69;5074217;28;20660;-69
2021/12/17 06:28:33;;;;;;;6.67;6.10;;;;;;;5.35;100.00;100026.84;5073820;28;20215;-69
2021/12/17 06:31:00;;;;;;;5.97;5.57;;;;;;;5.28;100.00;100014.13;5074166;28;20202;-69
2021/12/17 06:33:27;;;;;;;6.20;5.70;;;;;;;5.39;100.00;100031.94;5074054;28;20568;-69
2021/12/17 06:35:53;;;;;;;5.83;5.43;;;;;;;5.43;100.00;100020.91;5072491;28;20210;-69
2021/12/17 06:38:21;;;;;;;6.50;5.90;;;;;;;5.45;100.00;100020.94;5073915;28;20206;-69
2021/12/17 06:40:48;;;;;;;5.43;5.13;;;;;;;5.43;100.00;100027.72;5073691;28;20200;-69
2021/12/17 06:43:16;;;;;;;6.60;6.00;;;;;;;5.50;100.00;100025.16;5074059;28;20196;-69
2021/12/17 06:45:53;;;;;;;5.87;5.30;;;;;;;5.49;100.00;100023.47;5073463;28;20242;-69
2021/12/17 06:48:24;;;;;;;7.43;5.83;;;;;;;5.45;100.00;100020.94;5073661;28;20215;-69
2021/12/17 06:57:12;;;;;;;13.93;7.90;;;;;;;5.60;100.00;100042.13;5072423;28;20199;-69
2021/12/17 06:59:42;;;;;;;7.77;7.03;;;;;;;5.64;100.00;100043.81;5072887;28;20192;-62
2021/12/17 07:10:42;;;;;;;7.00;6.50;;;;;;;5.72;100.00;100043.78;5105398;27;20582;-62
2021/12/17 07:21:37;;;;;;;6.30;5.80;;;;;;;5.86;100.00;100029.41;5092688;28;20207;-61
2021/12/17 07:24:49;;;;;;;7.67;7.03;;;;;;;5.79;100.00;100014.97;5095682;28;20616;-61
2021/12/17 07:32:47;;;;;;;7.90;6.90;;;;;;;6.08;100.00;100040.41;5094163;28;20206;-60
2021/12/17 07:40:39;;;;;;;6.53;5.93;;;;;;;6.30;100.00;100030.16;5102189;28;20226;-60
2021/12/17 07:43:21;;;;;;;6.53;6.03;;;;;;;6.29;100.00;100013.22;5102054;28;20199;-60
2021/12/17 07:45:48;;;;;;;5.60;5.20;;;;;;;6.42;100.00;100025.88;5102344;28;20726;-61
2021/12/17 07:48:15;;;;;;;6.03;5.63;;;;;;;6.50;100.00;100016.50;5101779;28;20207;-61
2021/12/17 07:50:42;;;;;;;8.43;7.70;;;;;;;6.56;100.00;100013.97;5100070;28;20229;-60
2021/12/17 07:53:09;;;;;;;9.83;6.20;;;;;;;6.64;100.00;100012.22;5102757;28;20206;-61
2021/12/17 07:55:36;;;;;;;8.83;5.30;;;;;;;6.70;100.00;100013.03;5102686;28;20203;-64
2021/12/17 07:58:03;;;;;;;6.63;5.47;;;;;;;6.75;100.00;100005.38;5102904;28;20214;-60
2021/12/17 08:00:32;;;;;;;38.00;16.53;;;;;;;6.86;100.00;99993.41;5101641;28;20200;-70
2021/12/17 08:02:59;;;;;;;1999.90;813.23;;;;;;;6.96;100.00;99999.28;5102980;28;20214;-70
2021/12/17 08:05:26;;;;;;;59.77;31.67;;;;;;;7.08;100.00;100000.06;5102210;28;20570;-70
2021/12/17 08:07:53;;;;;;;7.67;7.17;;;;;;;7.15;100.00;100001.72;5102456;28;20209;-68
2021/12/17 08:10:19;;;;;;;5.17;4.87;;;;;;;7.25;100.00;100005.91;5104478;28;20231;-67
2021/12/17 08:12:46;;;;;;;4.60;4.20;;;;;;;7.34;100.00;100008.38;5105329;28;20677;-68
2021/12/17 08:15:14;;;;;;;5.03;4.73;;;;;;;7.43;99.78;100006.63;5102723;28;20293;-68
2021/12/17 08:18:15;;;;;;;3.70;3.40;;;;;;;7.42;99.89;100010.88;5102999;28;20195;-68
2021/12/17 08:26:26;;;;;;;4.80;4.50;;;;;;;7.42;100.00;99990.47;5088361;28;20266;-68
2021/12/17 08:29:22;;;;;;;3.63;3.33;;;;;;;7.47;100.00;99998.06;5083872;28;20219;-68
2021/12/17 08:31:44;;;;;;;4.53;4.23;;;;;;;7.62;100.00;99997.97;5089064;28;20295;-68
2021/12/17 08:34:13;;;;;;;4.43;4.07;;;;;;;7.70;99.34;99991.06;5090102;28;20203;-68
2021/12/17 08:36:40;;;;;;;5.77;5.27;;;;;;;7.79;99.59;99996.09;5090014;28;20215;-70
2021/12/17 08:39:07;;;;;;;3.53;3.23;;;;;;;7.76;97.55;99996.97;5090529;28;20608;-69
2021/12/17 08:41:34;;;;;;;6.07;5.57;;;;;;;7.72;98.33;99989.38;5089993;28;20196;-69
2021/12/17 08:44:00;;;;;;;4.60;4.30;;;;;;;7.73;98.32;99991.03;5089758;28;20571;-69
2021/12/17 08:46:27;;;;;;;8.97;3.33;;;;;;;7.71;97.63;99987.66;5089118;28;20211;-68
2021/12/17 08:48:54;;;;;;;4.30;4.07;;;;;;;7.74;98.61;99982.53;5086401;28;20582;-68
2021/12/17 08:51:23;;;;;;;4.37;4.07;;;;;;;7.75;99.46;99984.25;5087453;28;20204;-68
2021/12/17 08:53:50;;;;;;;3.83;3.63;;;;;;;7.80;99.18;99972.28;5089041;28;20682;-68
2021/12/17 08:56:19;;;;;;;4.40;4.10;;;;;;;7.78;98.97;99972.31;5088799;28;20200;-68
2021/12/17 08:58:47;;;;;;;4.80;4.40;;;;;;;7.82;99.01;99967.97;5088236;28;20203;-69
2021/12/17 09:01:14;;;;;;;5.37;5.07;;;;;;;7.88;98.71;99967.94;5089665;28;20203;-69
2021/12/17 09:03:41;;;;;;;7.23;6.57;;;;;;;7.98;99.52;99959.31;5087180;28;20203;-68
2021/12/17 09:06:07;;;;;;;7.30;5.60;;;;;;;7.93;100.00;99938.94;5086959;28;20710;-68
2021/12/17 09:08:36;;;;;;;4.27;3.97;;;;;;;8.11;99.76;99948.09;5088049;28;20256;-68
2021/12/17 09:11:03;;;;;;;3.80;3.60;;;;;;;8.13;99.58;99942.97;5086993;28;20217;-69
2021/12/17 09:13:30;;;;;;;3.53;3.33;;;;;;;8.18;100.00;99928.44;5089217;28;20229;-69
2021/12/17 09:15:58;;;;;;;3.33;3.13;;;;;;;8.22;100.00;99925.00;5088593;28;20199;-68
2021/12/17 09:18:25;;;;;;;4.37;3.53;;;;;;;8.29;100.00;99916.44;5085793;28;20204;-69
2021/12/17 09:20:53;;;;;;;3.10;2.90;;;;;;;8.33;99.52;99921.50;5087366;28;20203;-69
2021/12/17 09:23:20;;;;;;;4.07;3.87;;;;;;;8.44;100.00;99918.78;5090854;28;20203;-69
2021/12/17 09:25:48;;;;;;;4.23;3.87;;;;;;;8.48;98.88;99914.47;5087739;28;20210;-69
2021/12/17 09:28:15;;;;;;;3.80;3.60;;;;;;;8.54;98.44;99915.22;5086829;28;20196;-74
2021/12/17 09:30:42;;;;;;;3.00;2.90;;;;;;;8.54;99.35;99904.16;5088446;28;20694;-69
2021/12/17 09:33:09;;;;;;;2.60;2.50;;;;;;;8.58;98.96;99903.25;5089307;28;20207;-69
2021/12/17 09:35:36;;;;;;;3.27;2.77;;;;;;;8.55;97.83;99903.31;5088848;28;20212;-69
2021/12/17 09:38:03;;;;;;;2.80;2.70;;;;;;;8.54;100.00;99893.94;5088956;28;20655;-69
2021/12/17 09:40:30;;;;;;;2.30;2.20;;;;;;;8.43;98.54;99887.25;5088615;28;20199;-72
2021/12/17 09:42:58;;;;;;;2.43;2.33;;;;;;;8.42;99.80;99893.25;5089091;28;20203;-68
2021/12/17 09:45:25;;;;;;;2.93;2.80;;;;;;;8.34;99.65;99879.72;5081999;28;20200;-69
2021/12/17 09:47:52;;;;;;;2.47;2.37;;;;;;;8.29;100.00;99876.41;5086792;28;20199;-69
2021/12/17 09:50:22;;;;;;;2.80;2.67;;;;;;;8.21;100.00;99862.84;5087552;28;20221;-69
2021/12/17 09:52:50;;;;;;;2.90;2.80;;;;;;;8.14;100.00;99851.03;5085015;28;20207;-69
2021/12/17 09:55:17;;;;;;;2.60;2.50;;;;;;;8.14;100.00;99868.06;5087890;28;20203;-69
2021/12/17 09:57:44;;;;;;;2.90;2.70;;;;;;;8.13;100.00;99859.56;5089292;28;20218;-68
2021/12/17 10:00:17;;;;;;;2.80;2.70;;;;;;;8.12;100.00;99862.13;5091150;28;20279;-69
2021/12/17 10:02:45;;;;;;;3.53;3.27;;;;;;;8.16;100.00;99849.31;5087139;28;20218;-66
2021/12/17 10:05:18;;;;;;;3.50;3.30;;;;;;;8.15;100.00;99852.72;5086478;28;20686;-66
2021/12/17 10:07:47;;;;;;;3.10;2.90;;;;;;;8.18;100.00;99841.59;5086572;28;20218;-68
2021/12/17 10:10:16;;;;;;;3.20;3.00;;;;;;;8.18;100.00;99831.41;5087042;28;20227;-68
2021/12/17 10:12:42;;;;;;;3.60;3.40;;;;;;;8.10;100.00;99831.53;5087665;28;20727;-68
2021/12/17 10:15:13;;;;;;;3.30;3.00;;;;;;;8.05;100.00;99823.06;5086426;28;20204;-68
2021/12/17 10:17:53;;;;;;;3.30;3.10;;;;;;;8.09;100.00;99827.25;5085379;28;20207;-68
2021/12/17 10:20:21;;;;;;;2.47;2.37;;;;;;;8.09;100.00;99813.66;5085605;28;20206;-68
2021/12/17 10:22:56;;;;;;;2.90;2.80;;;;;;;8.10;100.00;99818.75;5086776;28;20203;-67
2021/12/17 10:25:23;;;;;;;3.00;2.90;;;;;;;8.15;100.00;99809.31;5083641;28;20214;-67
2021/12/17 10:27:57;;;;;;;2.70;2.60;;;;;;;8.17;100.00;99805.03;5085742;28;20211;-68
2021/12/17 10:30:25;;;;;;;3.40;3.20;;;;;;;8.13;100.00;99782.97;5086519;28;20215;-68
2021/12/17 10:32:55;;;;;;;3.00;2.70;;;;;;;8.24;100.00;99806.63;5087668;28;20207;-68
2021/12/17 10:35:23;;;;;;;3.87;3.40;;;;;;;8.29;100.00;99794.69;5088592;28;20655;-69
2021/12/17 10:37:56;;;;;;;3.20;3.00;;;;;;;8.36;100.00;99801.38;5086588;28;20206;-67
2021/12/17 10:40:26;;;;;;;3.33;3.13;;;;;;;8.41;100.00;99799.59;5082795;28;20679;-69
2021/12/17 10:43:05;;;;;;;2.60;2.50;;;;;;;8.51;100.00;99787.53;5084998;28;20218;-68
2021/12/17 10:45:38;;;;;;;2.87;2.77;;;;;;;8.58;100.00;99773.78;5086498;28;20206;-69
2021/12/17 10:48:25;;;;;;;2.87;2.73;;;;;;;8.64;100.00;99770.28;5086168;28;20246;-69
2021/12/17 10:50:54;;;;;;;3.13;3.03;;;;;;;8.67;99.73;99765.13;5086005;28;20242;-69
2021/12/17 10:53:25;;;;;;;2.83;2.73;;;;;;;8.69;99.48;99759.09;5086936;28;20207;-68
2021/12/17 10:55:54;;;;;;;3.50;3.30;;;;;;;8.60;97.00;99732.84;5085749;28;20230;-70
2021/12/17 10:58:21;;;;;;;3.27;3.07;;;;;;;8.74;98.31;99757.31;5083698;28;20206;-69
2021/12/17 11:00:51;;;;;;;3.57;3.40;;;;;;;8.80;97.34;99754.66;5085988;28;20207;-69
2021/12/17 11:03:19;;;;;;;3.43;3.13;;;;;;;8.85;96.52;99760.53;5076138;28;20207;-69
2021/12/17 11:05:46;;;;;;;3.83;3.63;;;;;;;8.87;97.67;99752.84;5085251;28;20222;-71
2021/12/17 11:08:24;;;;;;;3.17;3.00;;;;;;;8.91;98.55;99755.34;5086466;28;20205;-69
2021/12/17 11:10:57;;;;;;;3.43;3.23;;;;;;;8.86;97.70;99751.16;5086608;28;20223;-69
2021/12/17 11:13:25;;;;;;;3.73;3.53;;;;;;;8.90;98.58;99745.13;5087343;28;20199;-69
2021/12/17 11:15:54;;;;;;;3.13;2.93;;;;;;;8.90;97.52;99742.56;5086890;28;20578;-68
2021/12/17 11:18:25;;;;;;;3.77;3.50;;;;;;;8.91;97.65;99739.13;5087443;28;20200;-69
2021/12/17 11:20:55;;;;;;;3.03;2.83;;;;;;;8.88;96.01;99728.97;5083571;28;20203;-69
2021/12/17 11:23:23;;;;;;;3.37;3.17;;;;;;;8.92;97.47;99725.47;5086545;28;20198;-69
2021/12/17 11:25:53;;;;;;;3.87;3.67;;;;;;;9.06;97.44;99728.63;5086630;28;20226;-68
2021/12/17 11:28:21;;;;;;;4.70;4.40;;;;;;;9.11;97.12;99716.56;5085173;28;20653;-69
2021/12/17 11:30:49;;;;;;;3.43;3.23;;;;;;;9.15;96.35;99713.09;5087815;28;20691;-69
2021/12/17 11:33:16;;;;;;;3.50;3.20;;;;;;;9.08;94.08;99716.63;5087959;28;20202;-69
2021/12/17 11:35:47;;;;;;;3.27;3.10;;;;;;;9.12;95.04;99717.44;5085595;28;20195;-69
2021/12/17 11:38:17;;;;;;;3.57;3.37;;;;;;;9.13;95.36;99709.75;5088213;28;20288;-68
2021/12/17 11:40:49;;;;;;;3.57;3.37;;;;;;;9.13;95.28;99709.75;5088515;28;20206;-69
2021/12/17 11:43:28;;;;;;;6.23;5.83;;;;;;;9.13;95.13;99699.50;5088226;28;20199;-68
2021/12/17 11:46:00;;;;;;;6.33;5.83;;;;;;;9.14;95.30;99702.91;5087984;28;20195;-69
2021/12/17 11:48:29;;;;;;;4.10;3.83;;;;;;;9.16;95.03;99689.22;5088998;28;20203;-70
2021/12/17 11:51:12;;;;;;;3.90;3.70;;;;;;;9.13;94.82;99689.28;5090118;28;20579;-70
2021/12/17 11:54:14;;;;;;;3.33;3.23;;;;;;;9.18;95.85;99689.16;5087503;28;20639;-68
2021/12/17 11:56:44;;;;;;;2.90;2.80;;;;;;;9.14;94.76;99688.41;5088476;28;20206;-68
2021/12/17 11:59:32;;;;;;;3.00;2.90;;;;;;;9.19;95.44;99676.38;5090732;28;20214;-68
2021/12/17 12:02:05;;;;;;;2.60;2.50;;;;;;;9.27;94.63;99671.91;5090116;28;20203;-69
2021/12/17 12:04:45;;;;;;;3.10;2.90;;;;;;;9.26;94.95;99675.38;5090312;28;20211;-70
2021/12/17 12:07:15;;;;;;;3.57;3.37;;;;;;;9.24;95.45;99661.75;5090108;28;20203;-69
2021/12/17 12:10:01;;;;;;;3.40;3.20;;;;;;;9.24;94.04;99666.06;5089301;28;20598;-69
2021/12/17 12:12:30;;;;;;;3.40;3.20;;;;;;;9.23;94.85;99659.25;5087652;28;21788;-69
2021/12/17 12:15:32;;;;;;;2.93;2.83;;;;;;;9.20;96.06;99654.19;5090103;28;20680;-69
2021/12/17 12:18:10;;;;;;;3.00;2.90;;;;;;;9.06;94.12;99646.78;5088572;28;20214;-68
2021/12/17 12:20:57;;;;;;;3.30;3.10;;;;;;;9.07;95.99;99650.19;5089421;28;20206;-69
2021/12/17 12:23:46;;;;;;;3.93;3.10;;;;;;;9.11;94.84;99644.16;5082970;28;20577;-69
2021/12/17 12:26:40;;;;;;;3.40;3.20;;;;;;;9.10;94.51;99648.41;5089382;28;20203;-67
2021/12/17 12:29:15;;;;;;;3.13;2.93;;;;;;;9.09;95.25;99656.97;5088556;28;20203;-67
2021/12/17 12:31:51;;;;;;;3.77;3.57;;;;;;;9.11;96.12;99655.19;5088873;28;20234;-67
2021/12/17 12:34:20;;;;;;;3.33;3.23;;;;;;;9.08;95.37;99655.25;5089156;28;20203;-67
2021/12/17 12:36:56;;;;;;;3.30;3.10;;;;;;;9.01;94.92;99650.31;5088011;28;20207;-67
2021/12/17 12:39:26;;;;;;;3.20;3.00;;;;;;;9.01;94.80;99647.75;5087084;28;20633;-67
2021/12/17 12:42:06;;;;;;;4.23;3.53;;;;;;;8.97;95.55;99646.97;5087707;28;20226;-67
2021/12/17 12:45:08;;;;;;;4.03;3.73;;;;;;;8.90;96.12;99650.53;5089236;28;20207;-67
2021/12/17 12:47:42;;;;;;;3.40;3.20;;;;;;;8.86;95.89;99648.88;5078089;28;20584;-65
2021/12/17 12:50:12;;;;;;;3.30;3.20;;;;;;;8.87;96.75;99656.53;5088552;28;20686;-67
2021/12/17 12:52:45;;;;;;;4.37;4.07;;;;;;;8.80;98.28;99638.78;5088741;28;20648;-69
2021/12/17 12:55:20;;;;;;;3.23;3.13;;;;;;;8.82;96.49;99652.41;5088348;28;20199;-67
2021/12/17 12:57:49;;;;;;;4.33;4.13;;;;;;;8.80;97.04;99651.56;5087420;28;20313;-68
2021/12/17 13:00:19;;;;;;;3.70;3.50;;;;;;;8.80;96.85;99643.91;5087032;28;20223;-67
2021/12/17 13:02:48;;;;;;;5.43;3.67;;;;;;;8.76;97.64;99637.16;5088695;28;20199;-67
2021/12/17 13:05:15;;;;;;;3.70;3.40;;;;;;;8.76;97.89;99626.94;5088390;28;20203;-68
2021/12/17 13:07:47;;;;;;;3.57;3.37;;;;;;;8.76;97.09;99621.81;5087518;28;20199;-67
2021/12/17 13:10:16;;;;;;;3.47;3.17;;;;;;;8.70;97.55;99627.03;5087581;28;20409;-64
2021/12/17 13:12:54;;;;;;;6.13;3.77;;;;;;;8.71;97.53;99621.06;5090150;28;20214;-67
2021/12/17 13:15:39;;;;;;;3.17;3.07;;;;;;;8.67;97.15;99617.72;5087720;28;20210;-65
2021/12/17 13:21:03;;;;;;;4.80;3.13;;;;;;;8.55;97.84;99623.09;5088422;28;20199;-62
2021/12/17 13:23:35;;;;;;;3.27;2.93;;;;;;;8.56;97.84;99616.25;5083879;28;20199;-62
2021/12/17 13:26:05;;;;;;;3.90;3.37;;;;;;;8.52;98.21;99606.97;5085902;28;20722;-62
2021/12/17 13:28:59;;;;;;;3.23;3.03;;;;;;;8.49;97.57;99612.97;5084989;28;20202;-69
2021/12/17 13:31:38;;;;;;;2.60;2.50;;;;;;;8.46;98.17;99612.19;5088215;28;20217;-68
2021/12/17 13:34:11;;;;;;;3.50;3.27;;;;;;;8.48;98.29;99620.66;5088072;28;20210;-68
2021/12/17 13:36:43;;;;;;;3.63;3.43;;;;;;;8.50;98.60;99613.81;5088678;28;20682;-68
2021/12/17 13:39:12;;;;;;;4.10;3.90;;;;;;;8.48;98.05;99611.28;5089534;28;20203;-67
2021/12/17 13:41:42;;;;;;;3.70;3.50;;;;;;;8.50;98.62;99613.81;5088418;28;20226;-68
2021/12/17 13:44:33;;;;;;;3.90;3.70;;;;;;;8.47;98.19;99619.81;5090392;28;20701;-68
2021/12/17 13:47:11;;;;;;;6.40;3.60;;;;;;;8.45;98.22;99616.44;5087889;28;20348;-68
2021/12/17 13:49:38;;;;;;;3.83;3.63;;;;;;;8.44;99.88;99630.94;5087443;28;20207;-68
2021/12/17 13:52:06;;;;;;;3.90;3.60;;;;;;;8.44;99.56;99628.38;5088351;28;20535;-67
2021/12/17 13:54:34;;;;;;;5.30;4.90;;;;;;;8.41;98.28;99632.69;5088293;28;20209;-68
2021/12/17 13:57:03;;;;;;;10.27;8.73;;;;;;;8.34;98.35;99614.06;5088926;28;21076;-68